sensor_id;sensor_type;location;lat;lon;timestamp;P1;durP1;ratioP1;P2;durP2;ratioP2
74344;SDS011;62776;50.518;6.732;2023-02-15T00:02:20;18.35;;;16.38;;
74344;SDS011;62776;50.518;6.732;2023-02-15T00:05:06;17.60;;;15.85;;
74344;SDS011;62776;50.518;6.732;2023-02-15T00:07:56;17.98;;;16.08;;
74344;SDS011;62776;50.518;6.732;2023-02-15T00:10:43;18.60;;;16.75;;
74344;SDS011;62776;50.518;6.732;2023-02-15T00:13:31;19.63;;;17.60;;
74344;SDS011;62776;50.518;6.732;2023-02-15T00:16:20;18.52;;;16.50;;
74344;SDS011;62776;50.518;6.732;2023-02-15T00:19:07;18.20;;;16.38;;
74344;SDS011;62776;50.518;6.732;2023-02-15T00:21:54;18.05;;;16.25;;
74344;SDS011;62776;50.518;6.732;2023-02-15T00:24:41;17.55;;;15.80;;
74344;SDS011;62776;50.518;6.732;2023-02-15T00:27:28;17.27;;;15.57;;
74344;SDS011;62776;50.518;6.732;2023-02-15T00:30:14;18.77;;;16.88;;
74344;SDS011;62776;50.518;6.732;2023-02-15T00:33:00;18.50;;;16.35;;
74344;SDS011;62776;50.518;6.732;2023-02-15T00:35:56;18.48;;;16.60;;
74344;SDS011;62776;50.518;6.732;2023-02-15T00:38:44;16.65;;;14.90;;
74344;SDS011;62776;50.518;6.732;2023-02-15T00:41:31;17.92;;;16.02;;
74344;SDS011;62776;50.518;6.732;2023-02-15T00:44:18;17.63;;;15.93;;
74344;SDS011;62776;50.518;6.732;2023-02-15T00:47:04;16.52;;;14.85;;
74344;SDS011;62776;50.518;6.732;2023-02-15T00:49:50;16.95;;;15.30;;
74344;SDS011;62776;50.518;6.732;2023-02-15T00:52:36;18.25;;;16.42;;
74344;SDS011;62776;50.518;6.732;2023-02-15T00:55:28;16.92;;;15.32;;
74344;SDS011;62776;50.518;6.732;2023-02-15T00:58:22;17.50;;;15.70;;
74344;SDS011;62776;50.518;6.732;2023-02-15T01:01:14;17.30;;;15.50;;
74344;SDS011;62776;50.518;6.732;2023-02-15T01:04:03;17.48;;;15.57;;
74344;SDS011;62776;50.518;6.732;2023-02-15T01:06:50;17.35;;;15.68;;
74344;SDS011;62776;50.518;6.732;2023-02-15T01:09:42;16.85;;;15.25;;
74344;SDS011;62776;50.518;6.732;2023-02-15T01:12:35;16.38;;;14.77;;
74344;SDS011;62776;50.518;6.732;2023-02-15T01:15:23;15.52;;;13.93;;
74344;SDS011;62776;50.518;6.732;2023-02-15T01:18:11;17.00;;;15.30;;
74344;SDS011;62776;50.518;6.732;2023-02-15T01:20:58;15.77;;;14.18;;
74344;SDS011;62776;50.518;6.732;2023-02-15T01:23:46;15.90;;;14.27;;
74344;SDS011;62776;50.518;6.732;2023-02-15T01:26:34;17.10;;;15.40;;
74344;SDS011;62776;50.518;6.732;2023-02-15T01:29:20;17.02;;;15.27;;
74344;SDS011;62776;50.518;6.732;2023-02-15T01:32:06;16.05;;;14.48;;
74344;SDS011;62776;50.518;6.732;2023-02-15T01:34:52;15.23;;;13.60;;
74344;SDS011;62776;50.518;6.732;2023-02-15T01:37:39;16.02;;;14.45;;
74344;SDS011;62776;50.518;6.732;2023-02-15T01:40:25;15.15;;;13.65;;
74344;SDS011;62776;50.518;6.732;2023-02-15T01:43:21;15.23;;;13.70;;
74344;SDS011;62776;50.518;6.732;2023-02-15T01:46:26;14.52;;;13.13;;
74344;SDS011;62776;50.518;6.732;2023-02-15T01:49:29;14.73;;;13.32;;
74344;SDS011;62776;50.518;6.732;2023-02-15T01:52:21;14.90;;;13.40;;
74344;SDS011;62776;50.518;6.732;2023-02-15T01:55:14;15.18;;;13.68;;
74344;SDS011;62776;50.518;6.732;2023-02-15T01:58:02;14.27;;;12.98;;
74344;SDS011;62776;50.518;6.732;2023-02-15T02:00:49;15.30;;;13.73;;
74344;SDS011;62776;50.518;6.732;2023-02-15T02:03:49;13.65;;;12.25;;
74344;SDS011;62776;50.518;6.732;2023-02-15T02:06:47;14.35;;;12.90;;
74344;SDS011;62776;50.518;6.732;2023-02-15T02:09:36;15.38;;;13.45;;
74344;SDS011;62776;50.518;6.732;2023-02-15T02:12:22;13.75;;;12.43;;
74344;SDS011;62776;50.518;6.732;2023-02-15T02:15:10;14.65;;;13.10;;
74344;SDS011;62776;50.518;6.732;2023-02-15T02:21:21;15.50;;;13.95;;
74344;SDS011;62776;50.518;6.732;2023-02-15T02:27:39;14.30;;;12.95;;
74344;SDS011;62776;50.518;6.732;2023-02-15T02:33:42;14.93;;;13.52;;
74344;SDS011;62776;50.518;6.732;2023-02-15T02:37:08;13.85;;;12.45;;
74344;SDS011;62776;50.518;6.732;2023-02-15T02:43:00;12.85;;;11.65;;
74344;SDS011;62776;50.518;6.732;2023-02-15T02:45:59;13.27;;;11.98;;
74344;SDS011;62776;50.518;6.732;2023-02-15T02:48:56;13.55;;;12.15;;
74344;SDS011;62776;50.518;6.732;2023-02-15T02:51:43;12.15;;;10.95;;
74344;SDS011;62776;50.518;6.732;2023-02-15T02:54:30;11.57;;;10.48;;
74344;SDS011;62776;50.518;6.732;2023-02-15T02:57:19;12.65;;;11.35;;
74344;SDS011;62776;50.518;6.732;2023-02-15T03:00:08;14.13;;;12.60;;
74344;SDS011;62776;50.518;6.732;2023-02-15T03:03:00;13.35;;;12.05;;
74344;SDS011;62776;50.518;6.732;2023-02-15T03:06:04;14.80;;;13.35;;
74344;SDS011;62776;50.518;6.732;2023-02-15T03:08:56;16.67;;;14.98;;
74344;SDS011;62776;50.518;6.732;2023-02-15T03:11:52;16.45;;;14.70;;
74344;SDS011;62776;50.518;6.732;2023-02-15T03:14:39;17.50;;;15.80;;
74344;SDS011;62776;50.518;6.732;2023-02-15T03:17:28;18.33;;;16.52;;
74344;SDS011;62776;50.518;6.732;2023-02-15T03:20:24;19.50;;;16.75;;
74344;SDS011;62776;50.518;6.732;2023-02-15T03:23:17;18.83;;;16.83;;
74344;SDS011;62776;50.518;6.732;2023-02-15T03:26:14;17.23;;;15.38;;
74344;SDS011;62776;50.518;6.732;2023-02-15T03:29:00;19.15;;;17.15;;
74344;SDS011;62776;50.518;6.732;2023-02-15T03:31:53;17.00;;;15.30;;
74344;SDS011;62776;50.518;6.732;2023-02-15T03:34:43;17.33;;;15.53;;
74344;SDS011;62776;50.518;6.732;2023-02-15T03:40:31;17.92;;;16.02;;
74344;SDS011;62776;50.518;6.732;2023-02-15T03:46:40;18.95;;;16.98;;
74344;SDS011;62776;50.518;6.732;2023-02-15T03:49:42;18.05;;;15.68;;
74344;SDS011;62776;50.518;6.732;2023-02-15T03:52:36;17.58;;;15.77;;
74344;SDS011;62776;50.518;6.732;2023-02-15T03:55:23;17.33;;;15.63;;
74344;SDS011;62776;50.518;6.732;2023-02-15T03:58:09;18.02;;;16.13;;
74344;SDS011;62776;50.518;6.732;2023-02-15T04:01:18;16.20;;;14.60;;
74344;SDS011;62776;50.518;6.732;2023-02-15T04:04:38;16.45;;;14.10;;
74344;SDS011;62776;50.518;6.732;2023-02-15T04:07:29;15.50;;;13.90;;
74344;SDS011;62776;50.518;6.732;2023-02-15T04:10:15;16.75;;;14.95;;
74344;SDS011;62776;50.518;6.732;2023-02-15T04:13:21;15.13;;;13.35;;
74344;SDS011;62776;50.518;6.732;2023-02-15T04:16:09;15.98;;;14.30;;
74344;SDS011;62776;50.518;6.732;2023-02-15T04:18:58;16.52;;;14.82;;
74344;SDS011;62776;50.518;6.732;2023-02-15T04:22:04;15.68;;;14.18;;
74344;SDS011;62776;50.518;6.732;2023-02-15T04:25:10;15.55;;;13.93;;
74344;SDS011;62776;50.518;6.732;2023-02-15T04:27:59;17.25;;;15.23;;
74344;SDS011;62776;50.518;6.732;2023-02-15T04:30:46;16.83;;;14.35;;
74344;SDS011;62776;50.518;6.732;2023-02-15T04:33:32;16.60;;;14.63;;
74344;SDS011;62776;50.518;6.732;2023-02-15T04:36:20;16.23;;;14.52;;
74344;SDS011;62776;50.518;6.732;2023-02-15T04:39:14;16.55;;;14.80;;
74344;SDS011;62776;50.518;6.732;2023-02-15T04:42:01;15.85;;;14.25;;
74344;SDS011;62776;50.518;6.732;2023-02-15T04:44:54;15.60;;;14.00;;
74344;SDS011;62776;50.518;6.732;2023-02-15T04:47:41;16.30;;;14.70;;
74344;SDS011;62776;50.518;6.732;2023-02-15T04:50:27;12.98;;;11.63;;
74344;SDS011;62776;50.518;6.732;2023-02-15T04:53:13;17.60;;;15.80;;
74344;SDS011;62776;50.518;6.732;2023-02-15T04:56:02;16.63;;;14.98;;
74344;SDS011;62776;50.518;6.732;2023-02-15T04:58:51;16.73;;;15.02;;
74344;SDS011;62776;50.518;6.732;2023-02-15T05:01:38;16.02;;;14.32;;
74344;SDS011;62776;50.518;6.732;2023-02-15T05:04:24;15.05;;;13.55;;
74344;SDS011;62776;50.518;6.732;2023-02-15T05:07:11;15.82;;;14.23;;
74344;SDS011;62776;50.518;6.732;2023-02-15T05:09:59;15.68;;;13.98;;
74344;SDS011;62776;50.518;6.732;2023-02-15T05:12:46;15.93;;;14.32;;
74344;SDS011;62776;50.518;6.732;2023-02-15T05:15:32;15.05;;;13.45;;
74344;SDS011;62776;50.518;6.732;2023-02-15T05:18:21;15.90;;;13.77;;
74344;SDS011;62776;50.518;6.732;2023-02-15T05:21:07;16.05;;;14.35;;
74344;SDS011;62776;50.518;6.732;2023-02-15T05:23:54;16.40;;;14.50;;
74344;SDS011;62776;50.518;6.732;2023-02-15T05:26:48;15.63;;;13.52;;
74344;SDS011;62776;50.518;6.732;2023-02-15T05:29:54;15.40;;;13.80;;
74344;SDS011;62776;50.518;6.732;2023-02-15T05:32:40;17.60;;;15.02;;
74344;SDS011;62776;50.518;6.732;2023-02-15T05:35:27;16.25;;;14.10;;
74344;SDS011;62776;50.518;6.732;2023-02-15T05:38:13;16.25;;;14.55;;
74344;SDS011;62776;50.518;6.732;2023-02-15T05:41:01;15.80;;;14.13;;
74344;SDS011;62776;50.518;6.732;2023-02-15T05:43:47;14.50;;;13.00;;
74344;SDS011;62776;50.518;6.732;2023-02-15T05:46:34;14.48;;;12.88;;
74344;SDS011;62776;50.518;6.732;2023-02-15T05:49:21;20.30;;;13.40;;
74344;SDS011;62776;50.518;6.732;2023-02-15T05:52:09;15.43;;;13.88;;
74344;SDS011;62776;50.518;6.732;2023-02-15T05:54:57;14.85;;;13.27;;
74344;SDS011;62776;50.518;6.732;2023-02-15T05:57:45;16.88;;;14.88;;
74344;SDS011;62776;50.518;6.732;2023-02-15T06:00:40;17.00;;;15.30;;
74344;SDS011;62776;50.518;6.732;2023-02-15T06:03:26;16.50;;;14.75;;
74344;SDS011;62776;50.518;6.732;2023-02-15T06:06:29;18.05;;;16.20;;
74344;SDS011;62776;50.518;6.732;2023-02-15T06:09:15;16.65;;;14.93;;
74344;SDS011;62776;50.518;6.732;2023-02-15T06:12:04;17.02;;;14.00;;
74344;SDS011;62776;50.518;6.732;2023-02-15T06:14:51;15.38;;;13.77;;
74344;SDS011;62776;50.518;6.732;2023-02-15T06:17:38;16.00;;;14.30;;
74344;SDS011;62776;50.518;6.732;2023-02-15T06:20:29;16.02;;;14.35;;
74344;SDS011;62776;50.518;6.732;2023-02-15T06:23:16;14.55;;;13.02;;
74344;SDS011;62776;50.518;6.732;2023-02-15T06:26:02;13.60;;;12.20;;
74344;SDS011;62776;50.518;6.732;2023-02-15T06:28:52;13.02;;;11.52;;
74344;SDS011;62776;50.518;6.732;2023-02-15T06:31:38;13.77;;;12.30;;
74344;SDS011;62776;50.518;6.732;2023-02-15T06:34:26;14.95;;;12.63;;
74344;SDS011;62776;50.518;6.732;2023-02-15T06:37:12;14.80;;;12.20;;
74344;SDS011;62776;50.518;6.732;2023-02-15T06:39:59;14.07;;;12.57;;
74344;SDS011;62776;50.518;6.732;2023-02-15T06:42:46;12.98;;;11.68;;
74344;SDS011;62776;50.518;6.732;2023-02-15T06:45:32;12.73;;;11.32;;
74344;SDS011;62776;50.518;6.732;2023-02-15T06:48:21;13.68;;;11.70;;
74344;SDS011;62776;50.518;6.732;2023-02-15T06:51:08;13.90;;;12.23;;
74344;SDS011;62776;50.518;6.732;2023-02-15T06:53:54;14.07;;;11.93;;
74344;SDS011;62776;50.518;6.732;2023-02-15T06:56:40;13.18;;;11.63;;
74344;SDS011;62776;50.518;6.732;2023-02-15T06:59:29;12.65;;;10.65;;
74344;SDS011;62776;50.518;6.732;2023-02-15T07:02:15;12.45;;;11.00;;
74344;SDS011;62776;50.518;6.732;2023-02-15T07:05:05;13.65;;;12.27;;
74344;SDS011;62776;50.518;6.732;2023-02-15T07:07:52;14.38;;;12.63;;
74344;SDS011;62776;50.518;6.732;2023-02-15T07:10:43;14.57;;;12.73;;
74344;SDS011;62776;50.518;6.732;2023-02-15T07:13:29;14.95;;;12.90;;
74344;SDS011;62776;50.518;6.732;2023-02-15T07:16:15;13.80;;;12.38;;
74344;SDS011;62776;50.518;6.732;2023-02-15T07:19:03;15.40;;;12.63;;
74344;SDS011;62776;50.518;6.732;2023-02-15T07:21:51;14.13;;;12.63;;
74344;SDS011;62776;50.518;6.732;2023-02-15T07:24:38;14.75;;;11.68;;
74344;SDS011;62776;50.518;6.732;2023-02-15T07:27:32;13.95;;;11.88;;
74344;SDS011;62776;50.518;6.732;2023-02-15T07:30:18;12.85;;;11.50;;
74344;SDS011;62776;50.518;6.732;2023-02-15T07:33:05;13.40;;;11.98;;
74344;SDS011;62776;50.518;6.732;2023-02-15T07:36:12;14.60;;;12.50;;
74344;SDS011;62776;50.518;6.732;2023-02-15T07:38:58;13.95;;;11.80;;
74344;SDS011;62776;50.518;6.732;2023-02-15T07:41:44;13.57;;;12.10;;
74344;SDS011;62776;50.518;6.732;2023-02-15T07:44:34;13.82;;;12.43;;
74344;SDS011;62776;50.518;6.732;2023-02-15T07:47:24;13.98;;;12.43;;
74344;SDS011;62776;50.518;6.732;2023-02-15T07:50:11;18.00;;;15.45;;
74344;SDS011;62776;50.518;6.732;2023-02-15T07:53:02;14.20;;;11.50;;
74344;SDS011;62776;50.518;6.732;2023-02-15T07:55:51;14.15;;;11.60;;
74344;SDS011;62776;50.518;6.732;2023-02-15T07:58:37;12.98;;;11.68;;
74344;SDS011;62776;50.518;6.732;2023-02-15T08:01:36;14.23;;;12.82;;
74344;SDS011;62776;50.518;6.732;2023-02-15T08:04:23;16.33;;;11.55;;
74344;SDS011;62776;50.518;6.732;2023-02-15T08:07:20;14.77;;;12.82;;
74344;SDS011;62776;50.518;6.732;2023-02-15T08:10:06;15.38;;;12.90;;
74344;SDS011;62776;50.518;6.732;2023-02-15T08:12:53;12.48;;;10.40;;
74344;SDS011;62776;50.518;6.732;2023-02-15T08:15:39;12.10;;;10.88;;
74344;SDS011;62776;50.518;6.732;2023-02-15T08:18:45;14.18;;;11.38;;
74344;SDS011;62776;50.518;6.732;2023-02-15T08:21:34;12.00;;;10.25;;
74344;SDS011;62776;50.518;6.732;2023-02-15T08:24:22;11.20;;;9.70;;
74344;SDS011;62776;50.518;6.732;2023-02-15T08:27:11;11.85;;;10.23;;
74344;SDS011;62776;50.518;6.732;2023-02-15T08:29:57;12.10;;;9.70;;
74344;SDS011;62776;50.518;6.732;2023-02-15T08:32:44;12.50;;;9.68;;
74344;SDS011;62776;50.518;6.732;2023-02-15T08:35:31;11.65;;;9.40;;
74344;SDS011;62776;50.518;6.732;2023-02-15T08:38:18;10.93;;;9.27;;
74344;SDS011;62776;50.518;6.732;2023-02-15T08:44:08;9.48;;;7.78;;
74344;SDS011;62776;50.518;6.732;2023-02-15T08:46:56;10.05;;;8.05;;
74344;SDS011;62776;50.518;6.732;2023-02-15T08:49:48;10.63;;;8.50;;
74344;SDS011;62776;50.518;6.732;2023-02-15T08:52:37;9.38;;;7.30;;
74344;SDS011;62776;50.518;6.732;2023-02-15T08:55:23;9.07;;;8.00;;
74344;SDS011;62776;50.518;6.732;2023-02-15T08:58:10;9.95;;;7.72;;
74344;SDS011;62776;50.518;6.732;2023-02-15T09:00:58;8.65;;;7.82;;
74344;SDS011;62776;50.518;6.732;2023-02-15T09:03:47;17.48;;;14.07;;
74344;SDS011;62776;50.518;6.732;2023-02-15T09:06:36;9.43;;;8.48;;
74344;SDS011;62776;50.518;6.732;2023-02-15T09:09:25;9.02;;;7.40;;
74344;SDS011;62776;50.518;6.732;2023-02-15T09:12:11;9.55;;;7.82;;
74344;SDS011;62776;50.518;6.732;2023-02-15T09:15:01;12.00;;;8.85;;
74344;SDS011;62776;50.518;6.732;2023-02-15T09:17:48;9.13;;;8.27;;
74344;SDS011;62776;50.518;6.732;2023-02-15T09:20:35;12.35;;;9.13;;
74344;SDS011;62776;50.518;6.732;2023-02-15T09:23:22;10.82;;;8.68;;
74344;SDS011;62776;50.518;6.732;2023-02-15T09:26:10;8.55;;;7.65;;
74344;SDS011;62776;50.518;6.732;2023-02-15T09:28:59;9.15;;;7.75;;
74344;SDS011;62776;50.518;6.732;2023-02-15T09:31:47;9.43;;;8.40;;
74344;SDS011;62776;50.518;6.732;2023-02-15T09:34:36;15.68;;;9.05;;
74344;SDS011;62776;50.518;6.732;2023-02-15T09:37:23;12.45;;;9.65;;
74344;SDS011;62776;50.518;6.732;2023-02-15T09:40:11;10.93;;;8.45;;
74344;SDS011;62776;50.518;6.732;2023-02-15T09:43:20;11.10;;;9.43;;
74344;SDS011;62776;50.518;6.732;2023-02-15T09:56:19;9.85;;;8.07;;
74344;SDS011;62776;50.518;6.732;2023-02-15T10:15:41;9.40;;;8.35;;
74344;SDS011;62776;50.518;6.732;2023-02-15T10:18:55;10.82;;;8.63;;
74344;SDS011;62776;50.518;6.732;2023-02-15T10:21:58;13.25;;;9.05;;
74344;SDS011;62776;50.518;6.732;2023-02-15T10:28:05;10.77;;;9.70;;
74344;SDS011;62776;50.518;6.732;2023-02-15T10:34:13;10.73;;;9.63;;
74344;SDS011;62776;50.518;6.732;2023-02-15T10:40:25;10.70;;;8.52;;
74344;SDS011;62776;50.518;6.732;2023-02-15T10:50:10;10.15;;;9.07;;
74344;SDS011;62776;50.518;6.732;2023-02-15T10:59:15;10.90;;;9.43;;
74344;SDS011;62776;50.518;6.732;2023-02-15T11:08:13;11.13;;;8.63;;
74344;SDS011;62776;50.518;6.732;2023-02-15T11:11:01;9.85;;;8.82;;
74344;SDS011;62776;50.518;6.732;2023-02-15T11:13:56;9.30;;;7.85;;
74344;SDS011;62776;50.518;6.732;2023-02-15T11:16:51;11.15;;;9.02;;
74344;SDS011;62776;50.518;6.732;2023-02-15T11:23:15;11.20;;;8.07;;
74344;SDS011;62776;50.518;6.732;2023-02-15T11:26:09;9.75;;;7.82;;
74344;SDS011;62776;50.518;6.732;2023-02-15T11:29:01;11.02;;;7.90;;
74344;SDS011;62776;50.518;6.732;2023-02-15T11:32:13;12.13;;;8.48;;
74344;SDS011;62776;50.518;6.732;2023-02-15T11:41:11;10.65;;;7.82;;
74344;SDS011;62776;50.518;6.732;2023-02-15T11:44:32;9.93;;;7.68;;
74344;SDS011;62776;50.518;6.732;2023-02-15T11:47:28;9.50;;;8.02;;
74344;SDS011;62776;50.518;6.732;2023-02-15T11:50:16;7.63;;;6.65;;
74344;SDS011;62776;50.518;6.732;2023-02-15T11:53:21;8.85;;;7.43;;
74344;SDS011;62776;50.518;6.732;2023-02-15T11:56:19;8.57;;;7.18;;
74344;SDS011;62776;50.518;6.732;2023-02-15T11:59:12;8.07;;;6.38;;
74344;SDS011;62776;50.518;6.732;2023-02-15T12:02:20;7.93;;;7.07;;
74344;SDS011;62776;50.518;6.732;2023-02-15T12:05:11;11.05;;;7.53;;
74344;SDS011;62776;50.518;6.732;2023-02-15T12:08:10;9.43;;;8.40;;
74344;SDS011;62776;50.518;6.732;2023-02-15T12:11:10;8.80;;;7.90;;
74344;SDS011;62776;50.518;6.732;2023-02-15T12:14:19;9.73;;;8.10;;
74344;SDS011;62776;50.518;6.732;2023-02-15T12:17:12;9.70;;;8.27;;
74344;SDS011;62776;50.518;6.732;2023-02-15T12:20:03;9.82;;;8.27;;
74344;SDS011;62776;50.518;6.732;2023-02-15T12:23:03;10.95;;;9.45;;
74344;SDS011;62776;50.518;6.732;2023-02-15T12:25:58;10.95;;;9.43;;
74344;SDS011;62776;50.518;6.732;2023-02-15T12:28:48;10.05;;;8.52;;
74344;SDS011;62776;50.518;6.732;2023-02-15T12:31:40;8.85;;;7.95;;
74344;SDS011;62776;50.518;6.732;2023-02-15T12:34:30;8.38;;;7.50;;
74344;SDS011;62776;50.518;6.732;2023-02-15T12:37:26;8.93;;;7.97;;
74344;SDS011;62776;50.518;6.732;2023-02-15T12:40:20;10.20;;;8.15;;
74344;SDS011;62776;50.518;6.732;2023-02-15T12:43:41;11.30;;;8.25;;
74344;SDS011;62776;50.518;6.732;2023-02-15T12:46:24;10.90;;;8.27;;
74344;SDS011;62776;50.518;6.732;2023-02-15T12:49:19;11.77;;;8.77;;
74344;SDS011;62776;50.518;6.732;2023-02-15T12:52:24;11.48;;;8.38;;
74344;SDS011;62776;50.518;6.732;2023-02-15T12:55:19;9.38;;;8.48;;
74344;SDS011;62776;50.518;6.732;2023-02-15T12:58:18;12.68;;;9.85;;
74344;SDS011;62776;50.518;6.732;2023-02-15T13:01:18;9.85;;;8.48;;
74344;SDS011;62776;50.518;6.732;2023-02-15T13:04:23;9.88;;;8.77;;
74344;SDS011;62776;50.518;6.732;2023-02-15T13:07:17;12.52;;;8.55;;
74344;SDS011;62776;50.518;6.732;2023-02-15T13:10:17;10.15;;;8.63;;
74344;SDS011;62776;50.518;6.732;2023-02-15T13:13:26;13.10;;;8.60;;
74344;SDS011;62776;50.518;6.732;2023-02-15T13:16:14;9.57;;;8.25;;
74344;SDS011;62776;50.518;6.732;2023-02-15T13:23:05;11.95;;;9.32;;
74344;SDS011;62776;50.518;6.732;2023-02-15T13:26:09;10.55;;;8.57;;
74344;SDS011;62776;50.518;6.732;2023-02-15T13:29:06;9.27;;;7.97;;
74344;SDS011;62776;50.518;6.732;2023-02-15T13:32:24;11.90;;;9.38;;
74344;SDS011;62776;50.518;6.732;2023-02-15T13:35:16;11.75;;;10.55;;
74344;SDS011;62776;50.518;6.732;2023-02-15T13:38:13;10.32;;;8.27;;
74344;SDS011;62776;50.518;6.732;2023-02-15T13:41:20;11.10;;;8.88;;
74344;SDS011;62776;50.518;6.732;2023-02-15T13:54:02;12.38;;;9.45;;
74344;SDS011;62776;50.518;6.732;2023-02-15T13:57:32;14.70;;;9.80;;
74344;SDS011;62776;50.518;6.732;2023-02-15T14:00:47;10.93;;;9.52;;
74344;SDS011;62776;50.518;6.732;2023-02-15T14:04:12;12.98;;;9.63;;
74344;SDS011;62776;50.518;6.732;2023-02-15T14:19:42;9.25;;;8.23;;
74344;SDS011;62776;50.518;6.732;2023-02-15T14:22:35;12.57;;;9.70;;
74344;SDS011;62776;50.518;6.732;2023-02-15T14:28:25;11.32;;;9.25;;
74344;SDS011;62776;50.518;6.732;2023-02-15T14:31:25;10.95;;;8.93;;
74344;SDS011;62776;50.518;6.732;2023-02-15T14:34:20;14.00;;;10.05;;
74344;SDS011;62776;50.518;6.732;2023-02-15T14:40:38;11.40;;;9.18;;
74344;SDS011;62776;50.518;6.732;2023-02-15T14:46:36;14.10;;;10.65;;
74344;SDS011;62776;50.518;6.732;2023-02-15T14:49:37;12.88;;;9.13;;
74344;SDS011;62776;50.518;6.732;2023-02-15T14:52:30;11.07;;;9.93;;
74344;SDS011;62776;50.518;6.732;2023-02-15T14:55:39;13.35;;;9.77;;
74344;SDS011;62776;50.518;6.732;2023-02-15T14:58:25;11.52;;;10.27;;
74344;SDS011;62776;50.518;6.732;2023-02-15T15:04:23;16.40;;;9.85;;
74344;SDS011;62776;50.518;6.732;2023-02-15T15:07:17;13.38;;;10.23;;
74344;SDS011;62776;50.518;6.732;2023-02-15T15:10:33;14.82;;;10.50;;
74344;SDS011;62776;50.518;6.732;2023-02-15T15:22:31;13.32;;;11.15;;
74344;SDS011;62776;50.518;6.732;2023-02-15T15:31:37;12.95;;;10.55;;
74344;SDS011;62776;50.518;6.732;2023-02-15T15:34:54;15.43;;;11.18;;
74344;SDS011;62776;50.518;6.732;2023-02-15T15:41:16;14.13;;;11.15;;
74344;SDS011;62776;50.518;6.732;2023-02-15T15:47:54;12.60;;;10.15;;
74344;SDS011;62776;50.518;6.732;2023-02-15T15:50:50;14.20;;;12.10;;
74344;SDS011;62776;50.518;6.732;2023-02-15T15:53:43;13.35;;;9.98;;
74344;SDS011;62776;50.518;6.732;2023-02-15T15:56:36;13.90;;;11.85;;
74344;SDS011;62776;50.518;6.732;2023-02-15T15:59:25;12.40;;;10.65;;
74344;SDS011;62776;50.518;6.732;2023-02-15T16:02:18;13.32;;;11.93;;
74344;SDS011;62776;50.518;6.732;2023-02-15T16:05:08;13.68;;;12.27;;
74344;SDS011;62776;50.518;6.732;2023-02-15T16:07:57;16.50;;;11.88;;
74344;SDS011;62776;50.518;6.732;2023-02-15T16:10:43;16.02;;;11.20;;
74344;SDS011;62776;50.518;6.732;2023-02-15T16:13:30;23.77;;;11.95;;
74344;SDS011;62776;50.518;6.732;2023-02-15T16:16:25;16.70;;;12.15;;
74344;SDS011;62776;50.518;6.732;2023-02-15T16:19:18;13.07;;;11.65;;
74344;SDS011;62776;50.518;6.732;2023-02-15T16:22:23;15.23;;;12.20;;
74344;SDS011;62776;50.518;6.732;2023-02-15T16:28:56;17.10;;;13.55;;
74344;SDS011;62776;50.518;6.732;2023-02-15T16:32:15;14.13;;;12.45;;
74344;SDS011;62776;50.518;6.732;2023-02-15T16:35:12;15.18;;;11.52;;
74344;SDS011;62776;50.518;6.732;2023-02-15T16:38:04;13.23;;;11.73;;
74344;SDS011;62776;50.518;6.732;2023-02-15T16:40:56;22.13;;;13.85;;
74344;SDS011;62776;50.518;6.732;2023-02-15T16:43:45;20.25;;;14.80;;
74344;SDS011;62776;50.518;6.732;2023-02-15T16:46:41;12.05;;;10.85;;
74344;SDS011;62776;50.518;6.732;2023-02-15T16:49:31;13.73;;;12.20;;
74344;SDS011;62776;50.518;6.732;2023-02-15T16:52:23;16.35;;;11.13;;
74344;SDS011;62776;50.518;6.732;2023-02-15T16:55:19;13.37;;;10.60;;
74344;SDS011;62776;50.518;6.732;2023-02-15T16:58:14;13.48;;;11.15;;
74344;SDS011;62776;50.518;6.732;2023-02-15T17:01:06;17.45;;;14.45;;
74344;SDS011;62776;50.518;6.732;2023-02-15T17:07:17;13.70;;;12.30;;
74344;SDS011;62776;50.518;6.732;2023-02-15T17:10:16;17.02;;;12.70;;
74344;SDS011;62776;50.518;6.732;2023-02-15T17:13:15;16.70;;;13.45;;
74344;SDS011;62776;50.518;6.732;2023-02-15T17:16:23;18.15;;;13.57;;
74344;SDS011;62776;50.518;6.732;2023-02-15T17:19:14;15.55;;;13.95;;
74344;SDS011;62776;50.518;6.732;2023-02-15T17:22:22;15.20;;;13.63;;
74344;SDS011;62776;50.518;6.732;2023-02-15T17:25:18;15.02;;;13.43;;
74344;SDS011;62776;50.518;6.732;2023-02-15T17:28:17;14.68;;;13.20;;
74344;SDS011;62776;50.518;6.732;2023-02-15T17:31:07;15.77;;;13.77;;
74344;SDS011;62776;50.518;6.732;2023-02-15T17:33:53;14.80;;;13.10;;
74344;SDS011;62776;50.518;6.732;2023-02-15T17:36:53;14.15;;;12.75;;
74344;SDS011;62776;50.518;6.732;2023-02-15T17:39:44;14.02;;;12.52;;
74344;SDS011;62776;50.518;6.732;2023-02-15T17:42:30;14.88;;;13.40;;
74344;SDS011;62776;50.518;6.732;2023-02-15T17:45:17;15.40;;;13.90;;
74344;SDS011;62776;50.518;6.732;2023-02-15T17:48:04;14.43;;;12.88;;
74344;SDS011;62776;50.518;6.732;2023-02-15T17:51:07;15.25;;;13.75;;
74344;SDS011;62776;50.518;6.732;2023-02-15T17:53:58;15.13;;;13.55;;
74344;SDS011;62776;50.518;6.732;2023-02-15T17:57:10;15.13;;;13.65;;
74344;SDS011;62776;50.518;6.732;2023-02-15T17:59:58;15.27;;;13.75;;
74344;SDS011;62776;50.518;6.732;2023-02-15T18:03:06;15.65;;;14.05;;
74344;SDS011;62776;50.518;6.732;2023-02-15T18:06:15;16.05;;;14.43;;
74344;SDS011;62776;50.518;6.732;2023-02-15T18:09:20;16.50;;;14.60;;
74344;SDS011;62776;50.518;6.732;2023-02-15T18:12:33;16.05;;;14.45;;
74344;SDS011;62776;50.518;6.732;2023-02-15T18:15:22;16.20;;;14.50;;
74344;SDS011;62776;50.518;6.732;2023-02-15T18:18:11;15.73;;;14.15;;
74344;SDS011;62776;50.518;6.732;2023-02-15T18:20:57;15.55;;;13.95;;
74344;SDS011;62776;50.518;6.732;2023-02-15T18:23:46;14.95;;;13.55;;
74344;SDS011;62776;50.518;6.732;2023-02-15T18:26:35;16.95;;;15.32;;
74344;SDS011;62776;50.518;6.732;2023-02-15T18:29:24;19.30;;;15.15;;
74344;SDS011;62776;50.518;6.732;2023-02-15T18:32:17;16.17;;;14.57;;
74344;SDS011;62776;50.518;6.732;2023-02-15T18:35:15;15.35;;;13.82;;
74344;SDS011;62776;50.518;6.732;2023-02-15T18:38:13;16.15;;;14.30;;
74344;SDS011;62776;50.518;6.732;2023-02-15T18:41:01;16.63;;;14.93;;
74344;SDS011;62776;50.518;6.732;2023-02-15T18:43:50;18.35;;;15.90;;
74344;SDS011;62776;50.518;6.732;2023-02-15T18:46:38;17.10;;;15.32;;
74344;SDS011;62776;50.518;6.732;2023-02-15T18:49:25;17.88;;;15.98;;
74344;SDS011;62776;50.518;6.732;2023-02-15T18:52:15;16.42;;;14.88;;
74344;SDS011;62776;50.518;6.732;2023-02-15T18:55:12;17.02;;;15.27;;
74344;SDS011;62776;50.518;6.732;2023-02-15T18:58:08;18.45;;;16.45;;
74344;SDS011;62776;50.518;6.732;2023-02-15T19:01:11;18.65;;;16.83;;
74344;SDS011;62776;50.518;6.732;2023-02-15T19:04:00;17.65;;;15.98;;
74344;SDS011;62776;50.518;6.732;2023-02-15T19:06:48;19.27;;;17.35;;
74344;SDS011;62776;50.518;6.732;2023-02-15T19:09:34;18.05;;;16.20;;
74344;SDS011;62776;50.518;6.732;2023-02-15T19:12:22;19.73;;;17.75;;
74344;SDS011;62776;50.518;6.732;2023-02-15T19:15:21;19.10;;;17.17;;
74344;SDS011;62776;50.518;6.732;2023-02-15T19:18:09;17.38;;;15.57;;
74344;SDS011;62776;50.518;6.732;2023-02-15T19:21:03;17.67;;;15.88;;
74344;SDS011;62776;50.518;6.732;2023-02-15T19:24:13;17.50;;;15.70;;
74344;SDS011;62776;50.518;6.732;2023-02-15T19:27:18;17.88;;;16.08;;
74344;SDS011;62776;50.518;6.732;2023-02-15T19:30:15;18.50;;;16.63;;
74344;SDS011;62776;50.518;6.732;2023-02-15T19:33:16;20.40;;;18.35;;